createdAt,value
2022-10-02T00:00:04.000Z,96.81
2022-10-02T00:01:04.000Z,96.81
2022-10-02T00:02:04.000Z,96.81
2022-10-02T00:03:04.000Z,96.81
2022-10-02T00:04:04.000Z,96.92
2022-10-02T00:05:04.000Z,96.81
2022-10-02T00:06:04.000Z,96.81
2022-10-02T00:07:04.000Z,96.71
2022-10-02T00:08:04.000Z,96.61
2022-10-02T00:09:04.000Z,96.61
2022-10-02T00:10:04.000Z,96.51
2022-10-02T00:11:04.000Z,96.51
2022-10-02T00:12:04.000Z,96.51
2022-10-02T00:13:04.000Z,96.51
2022-10-02T00:14:04.000Z,96.51
2022-10-02T00:15:04.000Z,96.51
2022-10-02T00:16:04.000Z,96.30
2022-10-02T00:17:04.000Z,96.30
2022-10-02T00:18:04.000Z,96.05
2022-10-02T00:19:04.000Z,96.10
2022-10-02T00:20:04.000Z,96.20
2022-10-02T00:21:04.000Z,96.20
2022-10-02T00:22:04.000Z,96.10
2022-10-02T00:23:04.000Z,96.05
2022-10-02T00:24:04.000Z,95.95
2022-10-02T00:25:04.000Z,95.95
2022-10-02T00:26:04.000Z,95.95
2022-10-02T00:27:04.000Z,96.00
2022-10-02T00:28:04.000Z,96.00
2022-10-02T00:29:04.000Z,95.95
2022-10-02T00:30:04.000Z,95.95
2022-10-02T00:31:04.000Z,96.05
2022-10-02T00:32:04.000Z,96.10
2022-10-02T00:33:04.000Z,96.10
2022-10-02T00:34:04.000Z,96.20
2022-10-02T00:35:04.000Z,96.30
2022-10-02T00:36:04.000Z,96.20
2022-10-02T00:37:04.000Z,96.20
2022-10-02T00:38:04.000Z,96.30
2022-10-02T00:39:04.000Z,96.30
2022-10-02T00:40:04.000Z,96.20
2022-10-02T00:41:04.000Z,96.20
2022-10-02T00:42:04.000Z,96.20
2022-10-02T00:43:04.000Z,96.30
2022-10-02T00:44:04.000Z,96.30
2022-10-02T00:45:04.000Z,96.41
2022-10-02T00:46:04.000Z,96.51
2022-10-02T00:47:04.000Z,96.51
2022-10-02T00:48:04.000Z,96.61
2022-10-02T00:49:04.000Z,96.61
2022-10-02T00:50:04.000Z,96.61
2022-10-02T00:51:04.000Z,96.51
2022-10-02T00:52:04.000Z,96.51
2022-10-02T00:53:04.000Z,96.61
2022-10-02T00:54:04.000Z,96.61
2022-10-02T00:55:04.000Z,96.61
2022-10-02T00:56:04.000Z,96.51
2022-10-02T00:57:04.000Z,96.51
2022-10-02T00:58:04.000Z,96.41
2022-10-02T00:59:04.000Z,96.30
2022-10-02T01:00:04.000Z,96.41
2022-10-02T01:01:04.000Z,96.30
2022-10-02T01:02:03.000Z,96.20
2022-10-02T01:03:03.000Z,96.20
2022-10-02T01:04:03.000Z,96.10
2022-10-02T01:05:03.000Z,96.00
2022-10-02T01:06:03.000Z,95.89
2022-10-02T01:07:03.000Z,95.85
2022-10-02T01:08:03.000Z,95.75
2022-10-02T01:09:03.000Z,95.64
2022-10-02T01:10:03.000Z,95.79
2022-10-02T01:11:03.000Z,95.85
2022-10-02T01:12:03.000Z,95.89
2022-10-02T01:13:03.000Z,95.89
2022-10-02T01:14:03.000Z,96.00
2022-10-02T01:15:03.000Z,96.00
2022-10-02T01:16:03.000Z,96.00
2022-10-02T01:17:03.000Z,96.20
2022-10-02T01:18:03.000Z,96.30
2022-10-02T01:19:03.000Z,96.41
2022-10-02T01:20:03.000Z,96.55
2022-10-02T01:21:03.000Z,96.66
2022-10-02T01:22:03.000Z,96.71
2022-10-02T01:23:03.000Z,96.86
2022-10-02T01:24:03.000Z,96.81
2022-10-02T01:25:03.000Z,96.86
2022-10-02T01:26:03.000Z,96.81
2022-10-02T01:27:03.000Z,96.86
2022-10-02T01:28:03.000Z,96.86
2022-10-02T01:29:03.000Z,96.96
2022-10-02T01:30:03.000Z,96.96
2022-10-02T01:31:03.000Z,96.96
2022-10-02T01:32:03.000Z,97.06
2022-10-02T01:33:03.000Z,97.06
2022-10-02T01:34:03.000Z,97.16
2022-10-02T01:35:03.000Z,97.16
2022-10-02T01:36:03.000Z,97.16
2022-10-02T01:37:03.000Z,97.06
2022-10-02T01:38:03.000Z,97.02
2022-10-02T01:39:03.000Z,97.02
2022-10-02T01:40:03.000Z,97.02
2022-10-02T01:41:03.000Z,96.92
2022-10-02T01:42:03.000Z,96.92
2022-10-02T01:43:03.000Z,96.92
2022-10-02T01:44:03.000Z,96.81
2022-10-02T01:45:03.000Z,96.81
2022-10-02T01:46:03.000Z,96.71
2022-10-02T01:47:03.000Z,96.81
2022-10-02T01:48:03.000Z,96.61
2022-10-02T01:49:03.000Z,96.51
2022-10-02T01:50:03.000Z,96.30
2022-10-02T01:51:03.000Z,96.05
2022-10-02T01:52:03.000Z,95.95
2022-10-02T01:53:03.000Z,95.85
2022-10-02T01:54:03.000Z,95.64
2022-10-02T01:55:03.000Z,95.64
2022-10-02T01:56:03.000Z,95.54
2022-10-02T01:57:03.000Z,95.44
2022-10-02T01:58:03.000Z,95.34
2022-10-02T01:59:03.000Z,95.13
2022-10-02T02:00:03.000Z,94.93
2022-10-02T02:01:03.000Z,94.93
2022-10-02T02:02:03.000Z,94.58
2022-10-02T02:03:03.000Z,94.48
2022-10-02T02:04:03.000Z,94.27
2022-10-02T02:05:03.000Z,94.07
2022-10-02T02:06:03.000Z,93.86
2022-10-02T02:07:03.000Z,93.66
2022-10-02T02:08:03.000Z,93.55
2022-10-02T02:09:03.000Z,93.51
2022-10-02T02:10:03.000Z,93.31
2022-10-02T02:11:03.000Z,93.31
2022-10-02T02:12:03.000Z,93.31
2022-10-02T02:13:03.000Z,93.35
2022-10-02T02:14:03.000Z,93.21
2022-10-02T02:15:02.000Z,93.21
2022-10-02T02:16:02.000Z,93.21
2022-10-02T02:17:02.000Z,93.00
2022-10-02T02:18:02.000Z,92.90
2022-10-02T02:19:02.000Z,92.80
2022-10-02T02:20:02.000Z,92.69
2022-10-02T02:21:02.000Z,92.59
2022-10-02T02:22:02.000Z,92.59
2022-10-02T02:23:02.000Z,92.49
2022-10-02T02:24:02.000Z,92.59
2022-10-02T02:25:02.000Z,92.69
2022-10-02T02:26:02.000Z,92.59
2022-10-02T02:27:02.000Z,92.59
2022-10-02T02:28:02.000Z,92.64
2022-10-02T02:29:02.000Z,92.74
2022-10-02T02:30:02.000Z,92.84
2022-10-02T02:31:02.000Z,92.84
2022-10-02T02:32:02.000Z,92.94
2022-10-02T02:33:02.000Z,92.94
2022-10-02T02:34:02.000Z,93.05
2022-10-02T02:35:02.000Z,93.15
2022-10-02T02:36:02.000Z,93.15
2022-10-02T02:37:02.000Z,93.15
2022-10-02T02:38:02.000Z,93.15
2022-10-02T02:39:02.000Z,93.15
2022-10-02T02:40:02.000Z,93.15
2022-10-02T02:41:02.000Z,93.15
2022-10-02T02:42:02.000Z,93.15
2022-10-02T02:43:02.000Z,93.25
2022-10-02T02:44:02.000Z,93.25
2022-10-02T02:45:02.000Z,93.29
2022-10-02T02:46:02.000Z,93.40
2022-10-02T02:47:02.000Z,93.40
2022-10-02T02:48:02.000Z,93.50
2022-10-02T02:49:02.000Z,93.40
2022-10-02T02:50:02.000Z,93.50
2022-10-02T02:51:02.000Z,93.50
2022-10-02T02:52:02.000Z,93.60
2022-10-02T02:53:02.000Z,93.50
2022-10-02T02:54:02.000Z,93.60
2022-10-02T02:55:02.000Z,93.60
2022-10-02T02:56:02.000Z,93.50
2022-10-02T02:57:02.000Z,93.50
2022-10-02T02:58:02.000Z,93.50
2022-10-02T02:59:02.000Z,93.50
2022-10-02T03:00:02.000Z,93.40
2022-10-02T03:01:02.000Z,93.29
2022-10-02T03:02:02.000Z,93.29
2022-10-02T03:03:02.000Z,93.29
2022-10-02T03:04:02.000Z,93.29
2022-10-02T03:05:02.000Z,93.40
2022-10-02T03:06:02.000Z,93.50
2022-10-02T03:07:02.000Z,93.60
2022-10-02T03:08:02.000Z,93.70
2022-10-02T03:09:02.000Z,93.70
2022-10-02T03:10:02.000Z,93.80
2022-10-02T03:11:02.000Z,93.80
2022-10-02T03:12:02.000Z,93.70
2022-10-02T03:13:02.000Z,93.60
2022-10-02T03:14:02.000Z,93.60
2022-10-02T03:15:02.000Z,93.70
2022-10-02T03:16:02.000Z,93.70
2022-10-02T03:17:02.000Z,93.70
2022-10-02T03:18:02.000Z,93.80
2022-10-02T03:19:02.000Z,93.95
2022-10-02T03:20:02.000Z,93.95
2022-10-02T03:21:02.000Z,94.06
2022-10-02T03:22:02.000Z,94.15
2022-10-02T03:23:02.000Z,94.15
2022-10-02T03:24:01.000Z,94.26
2022-10-02T03:25:01.000Z,94.26
2022-10-02T03:26:01.000Z,94.36
2022-10-02T03:27:01.000Z,94.36
2022-10-02T03:28:01.000Z,94.56
2022-10-02T03:29:01.000Z,94.67
2022-10-02T03:30:01.000Z,94.56
2022-10-02T03:31:01.000Z,94.67
2022-10-02T03:32:01.000Z,94.77
2022-10-02T03:33:01.000Z,94.92
2022-10-02T03:34:01.000Z,94.87
2022-10-02T03:35:01.000Z,95.02
2022-10-02T03:36:01.000Z,95.02
2022-10-02T03:37:01.000Z,94.97
2022-10-02T03:38:01.000Z,95.02
2022-10-02T03:39:01.000Z,95.02
2022-10-02T03:40:01.000Z,95.12
2022-10-02T03:41:01.000Z,95.12
2022-10-02T03:42:01.000Z,95.22
2022-10-02T03:43:01.000Z,95.32
2022-10-02T03:44:01.000Z,95.43
2022-10-02T03:45:01.000Z,95.53
2022-10-02T03:46:01.000Z,95.73
2022-10-02T03:47:01.000Z,95.73
2022-10-02T03:48:01.000Z,95.84
2022-10-02T03:49:01.000Z,95.84
2022-10-02T03:50:01.000Z,95.84
2022-10-02T03:51:01.000Z,95.73
2022-10-02T03:52:01.000Z,95.53
2022-10-02T03:53:01.000Z,95.53
2022-10-02T03:54:01.000Z,95.43
2022-10-02T03:55:01.000Z,95.43
2022-10-02T03:56:01.000Z,95.28
2022-10-02T03:57:01.000Z,95.18
2022-10-02T03:58:01.000Z,95.07
2022-10-02T03:59:01.000Z,94.87
2022-10-02T04:00:01.000Z,94.87
2022-10-02T04:01:01.000Z,94.87
2022-10-02T04:02:01.000Z,94.87
2022-10-02T04:03:01.000Z,94.87
2022-10-02T04:04:01.000Z,94.87
2022-10-02T04:05:01.000Z,94.67
2022-10-02T04:06:01.000Z,94.67
2022-10-02T04:07:01.000Z,94.77
2022-10-02T04:08:01.000Z,94.67
2022-10-02T04:09:01.000Z,94.77
2022-10-02T04:10:01.000Z,94.77
2022-10-02T04:11:01.000Z,94.77
2022-10-02T04:12:01.000Z,94.87
2022-10-02T04:13:01.000Z,94.87
2022-10-02T04:14:01.000Z,94.92
2022-10-02T04:15:01.000Z,95.02
2022-10-02T04:16:01.000Z,95.02
2022-10-02T04:17:01.000Z,95.12
2022-10-02T04:18:01.000Z,95.12
2022-10-02T04:19:01.000Z,95.22
2022-10-02T04:20:01.000Z,95.32
2022-10-02T04:21:01.000Z,95.53
2022-10-02T04:22:01.000Z,95.84
2022-10-02T04:23:01.000Z,95.84
2022-10-02T04:24:01.000Z,95.94
2022-10-02T04:25:01.000Z,96.04
2022-10-02T04:26:01.000Z,96.04
2022-10-02T04:27:01.000Z,96.19
2022-10-02T04:28:00.000Z,96.34
2022-10-02T04:29:00.000Z,96.29
2022-10-02T04:30:00.000Z,96.34
2022-10-02T04:31:00.000Z,96.39
2022-10-02T04:32:00.000Z,96.39
2022-10-02T04:33:00.000Z,96.49
2022-10-02T04:34:00.000Z,96.49
2022-10-02T04:35:00.000Z,96.59
2022-10-02T04:36:00.000Z,96.59
2022-10-02T04:37:00.000Z,96.70
2022-10-02T04:38:00.000Z,96.80
2022-10-02T04:39:00.000Z,96.66
2022-10-02T04:40:00.000Z,96.66
2022-10-02T04:41:00.000Z,96.59
2022-10-02T04:42:00.000Z,96.59
2022-10-02T04:43:00.000Z,96.70
2022-10-02T04:44:00.000Z,96.59
2022-10-02T04:45:00.000Z,96.80
2022-10-02T04:46:00.000Z,96.91
2022-10-02T04:47:00.000Z,96.91
2022-10-02T04:48:00.000Z,97.00
2022-10-02T04:49:00.000Z,97.00
2022-10-02T04:50:00.000Z,97.00
2022-10-02T04:51:00.000Z,97.11
2022-10-02T04:52:00.000Z,97.15
2022-10-02T04:53:00.000Z,97.15
2022-10-02T04:54:00.000Z,97.25
2022-10-02T04:55:00.000Z,97.46
2022-10-02T04:56:00.000Z,97.46
2022-10-02T04:57:00.000Z,97.66
2022-10-02T04:58:00.000Z,97.66
2022-10-02T04:59:00.000Z,97.66
2022-10-02T05:00:00.000Z,97.77
2022-10-02T05:01:00.000Z,97.97
2022-10-02T05:02:00.000Z,98.07
2022-10-02T05:03:00.000Z,98.28
2022-10-02T05:04:00.000Z,98.28
2022-10-02T05:05:00.000Z,98.53
2022-10-02T05:06:00.000Z,98.49
2022-10-02T05:07:00.000Z,98.49
2022-10-02T05:08:00.000Z,98.63
2022-10-02T05:09:00.000Z,98.79
2022-10-02T05:10:00.000Z,98.90
2022-10-02T05:11:00.000Z,98.90
2022-10-02T05:12:00.000Z,98.90
2022-10-02T05:13:00.000Z,98.90
2022-10-02T05:14:00.000Z,98.90
2022-10-02T05:15:00.000Z,98.94
2022-10-02T05:16:00.000Z,98.94
2022-10-02T05:17:00.000Z,98.90
2022-10-02T05:18:00.000Z,99.04
2022-10-02T05:19:00.000Z,98.94
2022-10-02T05:20:00.000Z,99.04
2022-10-02T05:21:00.000Z,99.04
2022-10-02T05:21:00.000Z,99.04
2022-10-02T05:22:00.000Z,99.04
2022-10-02T05:22:00.000Z,99.04
2022-10-02T05:23:00.000Z,99.04
2022-10-02T05:23:00.000Z,99.04
2022-10-02T05:24:00.000Z,99.25
2022-10-02T05:24:00.000Z,99.25
2022-10-02T05:25:00.000Z,99.35
2022-10-02T05:25:00.000Z,99.35
2022-10-02T05:26:00.000Z,99.35
2022-10-02T05:27:00.000Z,99.35
2022-10-02T05:28:00.000Z,99.35
2022-10-02T05:29:00.000Z,99.45
2022-10-02T05:30:00.000Z,99.55
2022-10-02T05:31:00.000Z,99.66
2022-10-02T05:32:00.000Z,99.55
2022-10-02T05:33:00.000Z,99.66
2022-10-02T05:34:00.000Z,99.66
2022-10-02T05:35:00.000Z,99.76
2022-10-02T05:36:00.000Z,99.91
2022-10-02T05:37:00.000Z,99.91
2022-10-02T05:38:00.000Z,99.99
2022-10-02T05:39:00.000Z,99.99
2022-10-02T05:40:00.000Z,99.99
2022-10-02T05:40:59.000Z,99.99
2022-10-02T05:41:59.000Z,99.99
2022-10-02T05:42:59.000Z,99.99
2022-10-02T05:43:59.000Z,99.99
2022-10-02T05:44:59.000Z,99.99
2022-10-02T05:45:59.000Z,99.99
2022-10-02T05:46:59.000Z,99.99
2022-10-02T05:47:59.000Z,99.99
2022-10-02T05:48:59.000Z,99.99
2022-10-02T05:49:59.000Z,99.99
2022-10-02T05:50:59.000Z,99.99
2022-10-02T05:51:59.000Z,99.99
2022-10-02T05:52:59.000Z,99.99
2022-10-02T05:53:59.000Z,99.99
2022-10-02T05:54:59.000Z,99.99
2022-10-02T05:55:59.000Z,99.99
2022-10-02T05:56:59.000Z,99.99
2022-10-02T05:57:59.000Z,99.99
2022-10-02T05:58:59.000Z,99.99
2022-10-02T05:59:59.000Z,99.99
2022-10-02T06:00:59.000Z,99.99
2022-10-02T06:01:59.000Z,99.96
2022-10-02T06:02:59.000Z,99.86
2022-10-02T06:03:59.000Z,99.66
2022-10-02T06:04:59.000Z,99.66
2022-10-02T06:05:59.000Z,99.51
2022-10-02T06:06:59.000Z,99.41
2022-10-02T06:07:59.000Z,99.30
2022-10-02T06:08:59.000Z,99.10
2022-10-02T06:09:59.000Z,98.99
2022-10-02T06:10:59.000Z,98.90
2022-10-02T06:11:59.000Z,98.79
2022-10-02T06:12:59.000Z,98.65
2022-10-02T06:13:59.000Z,98.54
2022-10-02T06:14:59.000Z,98.54
2022-10-02T06:15:59.000Z,98.33
2022-10-02T06:16:59.000Z,98.24
2022-10-02T06:17:59.000Z,98.13
2022-10-02T06:18:59.000Z,98.03
2022-10-02T06:19:59.000Z,97.92
2022-10-02T06:20:59.000Z,97.98
2022-10-02T06:21:59.000Z,97.78
2022-10-02T06:22:59.000Z,97.67
2022-10-02T06:23:59.000Z,97.67
2022-10-02T06:24:59.000Z,97.57
2022-10-02T06:25:59.000Z,97.47
2022-10-02T06:26:59.000Z,97.33
2022-10-02T06:27:59.000Z,97.12
2022-10-02T06:28:59.000Z,97.02
2022-10-02T06:29:59.000Z,96.81
2022-10-02T06:30:59.000Z,96.61
2022-10-02T06:31:59.000Z,96.46
2022-10-02T06:32:59.000Z,96.36
2022-10-02T06:33:59.000Z,96.05
2022-10-02T06:34:59.000Z,95.75
2022-10-02T06:35:59.000Z,95.54
2022-10-02T06:36:59.000Z,95.29
2022-10-02T06:37:59.000Z,95.09
2022-10-02T06:38:59.000Z,95.09
2022-10-02T06:39:59.000Z,94.89
2022-10-02T06:40:59.000Z,94.68
2022-10-02T06:41:59.000Z,94.64
2022-10-02T06:42:59.000Z,94.43
2022-10-02T06:43:59.000Z,94.23
2022-10-02T06:44:59.000Z,94.33
2022-10-02T06:45:59.000Z,94.08
2022-10-02T06:46:59.000Z,93.98
2022-10-02T06:47:59.000Z,93.77
2022-10-02T06:48:59.000Z,93.26
2022-10-02T06:49:59.000Z,93.16
2022-10-02T06:50:59.000Z,92.91
2022-10-02T06:51:59.000Z,92.81
2022-10-02T06:52:59.000Z,92.20
2022-10-02T06:53:58.000Z,91.96
2022-10-02T06:54:58.000Z,92.05
2022-10-02T06:55:58.000Z,91.91
2022-10-02T06:56:58.000Z,91.20
2022-10-02T06:57:58.000Z,90.59
2022-10-02T06:58:58.000Z,90.64
2022-10-02T06:59:58.000Z,90.44
2022-10-02T07:00:58.000Z,90.34
2022-10-02T07:01:58.000Z,89.94
2022-10-02T07:02:58.000Z,89.63
2022-10-02T07:03:58.000Z,89.63
2022-10-02T07:04:58.000Z,89.83
2022-10-02T07:05:58.000Z,90.03
2022-10-02T07:06:58.000Z,89.48
2022-10-02T07:07:58.000Z,89.32
2022-10-02T07:08:58.000Z,89.73
2022-10-02T07:09:58.000Z,89.73
2022-10-02T07:10:58.000Z,89.53
2022-10-02T07:11:58.000Z,89.38
2022-10-02T07:12:58.000Z,89.63
2022-10-02T07:13:58.000Z,89.63
2022-10-02T07:14:58.000Z,89.63
2022-10-02T07:15:58.000Z,89.83
2022-10-02T07:16:58.000Z,89.94
2022-10-02T07:17:58.000Z,89.94
2022-10-02T07:18:58.000Z,89.79
2022-10-02T07:19:58.000Z,89.89
2022-10-02T07:20:58.000Z,89.69
2022-10-02T07:21:58.000Z,89.79
2022-10-02T07:22:58.000Z,89.79
2022-10-02T07:23:58.000Z,89.79
2022-10-02T07:24:58.000Z,89.44
2022-10-02T07:25:58.000Z,89.34
2022-10-02T07:26:58.000Z,89.20
2022-10-02T07:27:58.000Z,88.69
2022-10-02T07:28:58.000Z,88.34
2022-10-02T07:29:58.000Z,87.84
2022-10-02T07:30:58.000Z,87.08
2022-10-02T07:31:58.000Z,86.57
2022-10-02T07:32:58.000Z,86.98
2022-10-02T07:33:58.000Z,86.68
2022-10-02T07:34:58.000Z,86.94
2022-10-02T08:18:59.000Z,92.82
2022-10-02T08:18:59.000Z,92.61
2022-10-02T08:19:59.000Z,93.18
2022-10-02T08:20:59.000Z,93.07
2022-10-02T08:21:59.000Z,92.87
2022-10-02T08:22:59.000Z,92.57
2022-10-02T08:23:59.000Z,91.96
2022-10-02T08:24:59.000Z,92.57
2022-10-02T08:25:58.000Z,92.77
2022-10-02T08:26:58.000Z,93.28
2022-10-02T08:27:58.000Z,93.28
2022-10-02T08:28:58.000Z,93.48
2022-10-02T08:29:58.000Z,92.67
2022-10-02T08:30:58.000Z,92.57
2022-10-02T08:31:58.000Z,92.16
2022-10-02T08:32:58.000Z,91.75
2022-10-02T08:33:58.000Z,91.55
2022-10-02T08:34:58.000Z,91.61
2022-10-02T08:35:58.000Z,91.82
2022-10-02T08:36:58.000Z,91.30
2022-10-02T08:44:16.000Z,90.49
2022-10-02T08:44:16.000Z,90.19
2022-10-02T08:45:16.000Z,89.78
2022-10-02T08:46:16.000Z,89.13
2022-10-02T08:47:16.000Z,89.54
2022-10-02T08:48:16.000Z,89.64
2022-10-02T08:49:16.000Z,89.43
2022-10-02T08:50:16.000Z,89.94
2022-10-02T08:51:16.000Z,89.33
2022-10-02T08:52:16.000Z,89.64
2022-10-02T08:53:16.000Z,90.35
2022-10-02T08:54:16.000Z,89.74
2022-10-02T08:55:16.000Z,89.33
2022-10-02T08:56:16.000Z,89.64
2022-10-02T08:57:16.000Z,90.05
2022-10-02T08:58:16.000Z,90.14
2022-10-02T08:59:16.000Z,90.05
2022-10-02T09:00:16.000Z,89.64
2022-10-02T09:01:16.000Z,89.43
2022-10-02T09:02:16.000Z,89.64
2022-10-02T09:03:16.000Z,89.94
2022-10-02T09:04:16.000Z,89.74
2022-10-02T09:05:16.000Z,89.64
2022-10-02T09:06:16.000Z,89.23
2022-10-02T09:07:16.000Z,89.19
2022-10-02T09:08:16.000Z,89.70
2022-10-02T09:09:16.000Z,89.29
2022-10-02T09:10:16.000Z,89.09
2022-10-02T09:11:16.000Z,88.78
2022-10-02T09:12:16.000Z,88.38
2022-10-02T09:13:16.000Z,88.44
2022-10-02T09:14:16.000Z,88.54
2022-10-02T09:15:16.000Z,88.60
2022-10-02T09:16:16.000Z,87.79
2022-10-02T09:17:16.000Z,87.38
2022-10-02T09:18:16.000Z,86.68
2022-10-02T09:19:16.000Z,86.88
2022-10-02T09:20:16.000Z,86.68
2022-10-02T09:21:16.000Z,87.54
2022-10-02T09:22:16.000Z,86.94
2022-10-02T09:23:16.000Z,86.43
2022-10-02T09:24:15.000Z,86.53
2022-10-02T09:25:15.000Z,86.13
2022-10-02T09:26:15.000Z,86.33
2022-10-02T09:27:15.000Z,86.22
2022-10-02T09:28:15.000Z,86.43
2022-10-02T09:29:15.000Z,86.63
2022-10-02T09:30:15.000Z,86.29
2022-10-02T09:31:15.000Z,85.68
2022-10-02T09:32:15.000Z,85.88
2022-10-02T09:33:15.000Z,84.87
2022-10-02T09:34:15.000Z,85.38
2022-10-02T09:35:15.000Z,86.08
2022-10-02T09:36:15.000Z,85.88
2022-10-02T09:37:15.000Z,85.17
2022-10-02T09:38:15.000Z,85.38
2022-10-02T09:39:15.000Z,85.88
2022-10-02T09:40:15.000Z,85.17
2022-10-02T09:41:15.000Z,85.07
2022-10-02T09:42:15.000Z,85.42
2022-10-02T09:43:15.000Z,85.82
2022-10-02T09:44:15.000Z,85.52
2022-10-02T09:45:15.000Z,85.31
2022-10-02T09:46:15.000Z,85.01
2022-10-02T09:47:15.000Z,84.70
2022-10-02T09:48:15.000Z,83.80
2022-10-02T09:49:15.000Z,84.16
2022-10-02T09:50:15.000Z,85.07
2022-10-02T09:51:15.000Z,85.27
2022-10-02T09:52:15.000Z,85.27
2022-10-02T09:53:15.000Z,84.36
2022-10-02T09:54:15.000Z,84.27
2022-10-02T09:55:15.000Z,83.76
2022-10-02T09:56:15.000Z,83.35
2022-10-02T09:57:15.000Z,84.16
2022-10-02T09:58:15.000Z,84.06
2022-10-02T09:59:15.000Z,84.16
2022-10-02T10:00:15.000Z,84.67
2022-10-02T10:01:15.000Z,84.77
2022-10-02T10:02:15.000Z,84.77
2022-10-02T10:03:15.000Z,84.77
2022-10-02T10:04:15.000Z,85.07
2022-10-02T10:05:15.000Z,84.77
2022-10-02T10:06:15.000Z,84.87
2022-10-02T10:07:15.000Z,85.68
2022-10-02T10:08:15.000Z,85.27
2022-10-02T10:09:15.000Z,84.47
2022-10-02T10:10:15.000Z,84.02
2022-10-02T10:11:15.000Z,84.12
2022-10-02T10:12:15.000Z,83.84
2022-10-02T10:13:15.000Z,82.69
2022-10-02T10:14:15.000Z,81.74
2022-10-02T10:15:15.000Z,80.05
2022-10-02T10:16:15.000Z,79.10
2022-10-02T10:17:15.000Z,77.25
2022-10-02T10:18:15.000Z,76.71
2022-10-02T10:19:15.000Z,76.00
2022-10-02T10:20:15.000Z,75.46
2022-10-02T10:21:15.000Z,74.76
2022-10-02T10:22:15.000Z,75.43
2022-10-02T10:23:15.000Z,74.93
2022-10-02T10:24:15.000Z,74.69
2022-10-02T10:25:15.000Z,73.48
2022-10-02T10:26:15.000Z,73.04
2022-10-02T10:27:15.000Z,72.34
2022-10-02T10:28:15.000Z,72.84
2022-10-02T10:29:15.000Z,72.24
2022-10-02T10:30:15.000Z,72.41
2022-10-02T10:31:15.000Z,71.60
2022-10-02T10:32:15.000Z,71.70
2022-10-02T10:33:15.000Z,71.80
2022-10-02T10:34:15.000Z,71.30
2022-10-02T10:35:15.000Z,70.59
2022-10-02T10:36:15.000Z,70.63
2022-10-02T10:37:14.000Z,71.53
2022-10-02T10:38:14.000Z,70.93
2022-10-02T10:39:14.000Z,72.03
2022-10-02T10:40:14.000Z,71.73
2022-10-02T10:41:14.000Z,71.50
2022-10-02T10:42:14.000Z,70.29
2022-10-02T10:43:14.000Z,70.70
2022-10-02T10:44:14.000Z,70.79
2022-10-02T10:45:14.000Z,70.26
2022-10-02T10:46:14.000Z,69.49
2022-10-02T10:47:14.000Z,70.56
2022-10-02T10:48:14.000Z,69.96
2022-10-02T10:49:14.000Z,69.45
2022-10-02T10:50:14.000Z,69.89
2022-10-02T10:51:14.000Z,69.79
2022-10-02T10:52:14.000Z,69.38
2022-10-02T10:53:14.000Z,70.83
2022-10-02T10:54:14.000Z,70.83
2022-10-02T10:55:14.000Z,70.93
2022-10-02T10:56:14.000Z,71.43
2022-10-02T10:57:14.000Z,70.83
2022-10-02T10:58:14.000Z,70.59
2022-10-02T10:59:14.000Z,70.70
2022-10-02T11:00:14.000Z,70.32
2022-10-02T11:01:14.000Z,70.32
2022-10-02T11:02:14.000Z,70.83
2022-10-02T11:03:14.000Z,71.00
2022-10-02T11:04:14.000Z,71.50
2022-10-02T11:05:14.000Z,70.79
2022-10-02T11:06:14.000Z,70.39
2022-10-02T11:07:14.000Z,70.39
2022-10-02T11:08:14.000Z,70.19
2022-10-02T11:09:14.000Z,71.30
2022-10-02T11:10:14.000Z,70.93
2022-10-02T11:11:14.000Z,72.44
2022-10-02T11:12:14.000Z,71.56
2022-10-02T11:13:14.000Z,71.26
2022-10-02T11:14:14.000Z,71.00
2022-10-02T11:15:14.000Z,73.14
2022-10-02T11:16:14.000Z,73.75
2022-10-02T11:17:14.000Z,72.94
2022-10-02T11:18:14.000Z,73.18
2022-10-02T11:19:14.000Z,73.79
2022-10-02T11:20:14.000Z,73.99
2022-10-02T11:21:14.000Z,73.88
2022-10-02T11:22:14.000Z,73.65
2022-10-02T11:23:14.000Z,73.32
2022-10-02T11:24:14.000Z,73.88
2022-10-02T11:25:14.000Z,72.57
2022-10-02T11:26:14.000Z,72.07
2022-10-02T11:27:14.000Z,71.50
2022-10-02T11:28:14.000Z,71.60
2022-10-02T11:29:14.000Z,72.74
2022-10-02T11:30:14.000Z,73.38
2022-10-02T11:31:14.000Z,73.08
2022-10-02T11:32:14.000Z,73.28
2022-10-02T11:33:14.000Z,73.99
2022-10-02T11:34:14.000Z,74.12
2022-10-02T11:35:14.000Z,75.13
2022-10-02T11:36:14.000Z,73.48
2022-10-02T11:37:14.000Z,73.18
2022-10-02T11:38:14.000Z,73.28
2022-10-02T11:39:14.000Z,73.55
2022-10-02T11:40:14.000Z,73.14
2022-10-02T11:41:14.000Z,72.54
2022-10-02T11:42:14.000Z,73.85
2022-10-02T11:43:14.000Z,73.14
2022-10-02T11:44:14.000Z,73.25
2022-10-02T11:45:14.000Z,72.44
2022-10-02T11:46:14.000Z,73.65
2022-10-02T11:47:14.000Z,73.85
2022-10-02T11:48:14.000Z,74.15
2022-10-02T11:49:13.000Z,74.26
2022-10-02T11:50:13.000Z,73.92
2022-10-02T11:51:13.000Z,72.81
2022-10-02T11:52:13.000Z,72.27
2022-10-02T11:53:13.000Z,71.97
2022-10-02T11:54:13.000Z,73.04
2022-10-02T11:55:13.000Z,70.93
2022-10-02T11:56:13.000Z,70.32
2022-10-02T11:57:13.000Z,70.03
2022-10-02T11:58:13.000Z,69.52
2022-10-02T11:59:13.000Z,69.92
2022-10-02T12:00:13.000Z,70.26
2022-10-02T12:01:13.000Z,69.92
2022-10-02T12:02:13.000Z,69.96
2022-10-02T12:03:13.000Z,70.06
2022-10-02T12:04:13.000Z,70.39
2022-10-02T12:05:13.000Z,71.20
2022-10-02T12:06:13.000Z,72.11
2022-10-02T12:07:13.000Z,71.30
2022-10-02T12:08:13.000Z,71.77
2022-10-02T12:09:13.000Z,70.76
2022-10-02T12:10:13.000Z,70.96
2022-10-02T12:11:13.000Z,70.32
2022-10-02T12:12:13.000Z,69.38
2022-10-02T12:13:13.000Z,69.18
2022-10-02T12:14:13.000Z,68.15
2022-10-02T12:15:13.000Z,68.75
2022-10-02T12:16:13.000Z,68.05
2022-10-02T12:17:13.000Z,68.41
2022-10-02T12:18:13.000Z,68.32
2022-10-02T12:19:13.000Z,66.51
2022-10-02T12:20:13.000Z,67.21
2022-10-02T12:21:13.000Z,67.04
2022-10-02T12:22:13.000Z,67.14
2022-10-02T12:23:13.000Z,68.35
2022-10-02T12:24:13.000Z,67.74
2022-10-02T12:25:13.000Z,67.38
2022-10-02T12:26:13.000Z,67.58
2022-10-02T12:27:13.000Z,67.58
2022-10-02T12:28:13.000Z,67.74
2022-10-02T12:29:13.000Z,67.74
2022-10-02T12:30:13.000Z,67.01
2022-10-02T12:31:13.000Z,66.54
2022-10-02T12:32:13.000Z,66.34
2022-10-02T12:33:13.000Z,67.24
2022-10-02T12:34:13.000Z,68.18
2022-10-02T12:35:13.000Z,66.91
2022-10-02T12:36:13.000Z,66.71
2022-10-02T12:37:13.000Z,67.41
2022-10-02T12:38:13.000Z,67.41
2022-10-02T12:39:13.000Z,67.41
2022-10-02T12:40:13.000Z,67.21
2022-10-02T12:41:13.000Z,67.61
2022-10-02T12:42:13.000Z,66.67
2022-10-02T12:43:13.000Z,66.87
2022-10-02T12:44:13.000Z,67.14
2022-10-02T12:45:13.000Z,66.77
2022-10-02T12:46:13.000Z,66.87
2022-10-02T12:47:13.000Z,67.38
2022-10-02T12:48:13.000Z,67.27
2022-10-02T12:49:13.000Z,67.38
2022-10-02T12:50:13.000Z,67.07
2022-10-02T12:51:13.000Z,67.47
2022-10-02T12:52:13.000Z,67.81
2022-10-02T12:53:13.000Z,67.21
2022-10-02T12:54:13.000Z,67.81
2022-10-02T12:55:13.000Z,68.82
2022-10-02T12:56:13.000Z,69.92
2022-10-02T12:57:13.000Z,71.16
2022-10-02T12:58:13.000Z,72.11
2022-10-02T12:59:13.000Z,72.91
2022-10-02T13:00:13.000Z,73.25
2022-10-02T13:01:13.000Z,73.95
2022-10-02T13:02:12.000Z,74.66
2022-10-02T13:03:12.000Z,74.05
2022-10-02T13:04:12.000Z,74.35
2022-10-02T13:05:12.000Z,74.52
2022-10-02T13:06:12.000Z,73.41
2022-10-02T13:07:12.000Z,72.88
2022-10-02T13:08:12.000Z,72.14
2022-10-02T13:09:12.000Z,71.40
2022-10-02T13:10:12.000Z,71.26
2022-10-02T13:11:12.000Z,70.46
2022-10-02T13:12:12.000Z,70.36
2022-10-02T13:13:12.000Z,70.16
2022-10-02T13:14:12.000Z,70.39
2022-10-02T13:15:12.000Z,70.39
2022-10-02T13:16:12.000Z,71.09
2022-10-02T13:17:12.000Z,71.26
2022-10-02T13:18:12.000Z,70.46
2022-10-02T13:19:12.000Z,69.82
2022-10-02T13:20:12.000Z,69.02
2022-10-02T13:21:12.000Z,69.22
2022-10-02T13:22:12.000Z,68.29
2022-10-02T13:23:12.000Z,67.88
2022-10-02T13:24:12.000Z,67.48
2022-10-02T13:25:12.000Z,67.95
2022-10-02T13:26:12.000Z,67.82
2022-10-02T13:27:12.000Z,66.61
2022-10-02T13:28:12.000Z,66.05
2022-10-02T13:29:12.000Z,65.47
2022-10-02T13:30:12.000Z,66.11
2022-10-02T13:31:12.000Z,65.91
2022-10-02T13:32:12.000Z,66.24
2022-10-02T13:33:12.000Z,67.68
2022-10-02T13:34:12.000Z,68.71